Time;durP1;ratioP1;P1;durP2;ratioP2;P2;SDS_P1;SDS_P2;PMS_P1;PMS_P2;Temp;Humidity;BMP_temperature;BMP_pressure;BME280_temperature;BME280_humidity;BME280_pressure;Samples;Min_cycle;Max_cycle;Signal;HPM_P1;HPM_P2
2024/02/15 00:02:08;;;;;;;12.20;8.23;;;;;;;6.14;74.88;99769.19;5090720;28;20095;-72
2024/02/15 00:04:34;;;;;;;9.50;7.57;;;;;;;6.10;75.20;99765.38;5090744;28;20123;-72
2024/02/15 00:07:00;;;;;;;10.73;8.57;;;;;;;6.14;75.15;99771.97;5090536;28;20085;-72
2024/02/15 00:09:26;;;;;;;13.25;8.25;;;;;;;6.02;76.23;99768.78;5110548;28;20015;-71
2024/02/15 00:11:51;;;;;;;10.75;8.18;;;;;;;6.00;76.00;99763.50;5111008;28;20045;-72
2024/02/15 00:14:17;;;;;;;9.60;8.10;;;;;;;6.06;76.51;99769.03;5091321;28;20055;-72
2024/02/15 00:16:42;;;;;;;9.20;7.57;;;;;;;6.09;76.26;99774.78;5072203;28;20106;-72
2024/02/15 00:19:08;;;;;;;10.75;7.82;;;;;;;6.05;76.56;99768.19;5072326;28;20481;-72
2024/02/15 00:21:33;;;;;;;10.35;7.75;;;;;;;6.00;76.52;99755.16;5090442;28;20023;-72
2024/02/15 00:24:00;;;;;;;11.55;7.32;;;;;;;6.09;74.80;99774.00;5072365;28;20028;-73
2024/02/15 00:26:26;;;;;;;16.73;8.77;;;;;;;6.09;75.00;99766.47;5090294;28;20035;-73
2024/02/15 00:28:52;;;;;;;12.48;7.65;;;;;;;6.04;74.85;99767.38;5071428;28;20062;-73
2024/02/15 00:31:18;;;;;;;11.13;7.85;;;;;;;6.07;75.29;99767.91;5090287;28;20023;-72
2024/02/15 00:33:44;;;;;;;12.27;7.75;;;;;;;6.08;75.07;99769.56;5090383;28;20407;-72
2024/02/15 00:36:10;;;;;;;10.65;8.23;;;;;;;5.99;75.05;99761.84;5090327;28;20107;-72
2024/02/15 00:38:36;;;;;;;12.35;8.25;;;;;;;6.03;75.60;99771.28;5090193;28;20043;-72
2024/02/15 00:41:02;;;;;;;10.88;8.35;;;;;;;5.98;74.75;99757.41;5080692;28;20082;-72
2024/02/15 00:43:28;;;;;;;11.15;7.65;;;;;;;6.00;74.97;99763.50;5071840;28;20035;-73
2024/02/15 00:45:53;;;;;;;14.05;9.05;;;;;;;6.01;74.57;99756.84;5090090;28;20024;-72
2024/02/15 00:48:19;;;;;;;16.20;8.40;;;;;;;5.95;75.13;99762.72;5071826;28;20016;-73
2024/02/15 00:50:44;;;;;;;11.07;7.97;;;;;;;6.06;73.73;99761.50;5071914;28;20488;-73
2024/02/15 00:53:10;;;;;;;13.23;7.78;;;;;;;6.03;74.14;99762.97;5090159;28;20050;-73
2024/02/15 00:55:36;;;;;;;15.23;7.70;;;;;;;5.94;74.96;99763.84;5075171;28;20044;-73
2024/02/15 00:58:01;;;;;;;12.35;7.90;;;;;;;5.91;74.39;99756.94;5088506;28;20028;-72
2024/02/15 01:00:28;;;;;;;12.77;8.15;;;;;;;5.88;74.09;99757.53;5089569;28;20043;-72
2024/02/15 01:02:54;;;;;;;10.52;7.55;;;;;;;5.93;72.82;99765.81;5088658;28;20035;-72
2024/02/15 01:05:20;;;;;;;11.82;8.30;;;;;;;5.90;72.90;99756.13;5089863;28;20496;-72
2024/02/15 01:07:45;;;;;;;10.02;7.88;;;;;;;5.96;72.88;99759.66;5088645;28;20086;-73
2024/02/15 01:10:11;;;;;;;11.90;8.05;;;;;;;5.95;72.42;99759.97;5088387;28;20458;-72
2024/02/15 01:12:36;;;;;;;12.50;7.80;;;;;;;5.93;73.96;99757.50;5089707;28;20078;-73
2024/02/15 01:15:02;;;;;;;10.95;8.13;;;;;;;5.85;73.94;99753.44;5089882;28;20020;-72
2024/02/15 01:17:28;;;;;;;10.00;7.00;;;;;;;5.93;72.21;99743.63;5089719;28;20028;-72
2024/02/15 01:19:54;;;;;;;11.50;7.25;;;;;;;5.94;71.96;99752.75;5089310;28;20024;-72
2024/02/15 01:22:19;;;;;;;12.30;7.53;;;;;;;5.89;72.41;99754.47;5089709;28;20043;-72
2024/02/15 01:24:45;;;;;;;8.23;6.47;;;;;;;5.93;72.35;99753.88;5089722;28;20404;-73
2024/02/15 01:27:10;;;;;;;10.50;7.55;;;;;;;5.89;74.05;99761.97;5089640;28;20042;-72
2024/02/15 01:29:36;;;;;;;11.68;7.25;;;;;;;5.90;72.97;99758.91;5089724;28;20016;-73
2024/02/15 01:32:02;;;;;;;9.32;7.25;;;;;;;5.88;71.49;99750.06;5071608;28;20039;-73
2024/02/15 01:34:28;;;;;;;9.88;7.32;;;;;;;5.89;72.86;99751.69;5071548;28;20031;-74
2024/02/15 01:36:53;;;;;;;13.50;7.32;;;;;;;5.87;72.46;99756.72;5071183;28;20085;-73
2024/02/15 01:39:19;;;;;;;10.48;7.18;;;;;;;5.85;74.02;99772.03;5091265;28;20063;-73
2024/02/15 01:41:50;;;;;;;10.50;7.32;;;;;;;5.83;73.75;99765.94;5093599;28;20039;-73
2024/02/15 01:44:18;;;;;;;8.93;6.85;;;;;;;5.81;73.18;99759.88;5075264;28;20103;-73
2024/02/15 01:46:46;;;;;;;15.57;8.68;;;;;;;5.78;74.87;99768.75;5093387;28;20031;-73
2024/02/15 01:49:11;;;;;;;15.55;8.32;;;;;;;5.69;73.63;99761.09;5093497;28;20031;-73
2024/02/15 01:51:37;;;;;;;10.23;7.10;;;;;;;5.74;73.55;99763.00;5075004;28;20563;-74
2024/02/15 01:54:04;;;;;;;11.65;7.88;;;;;;;5.70;74.00;99757.22;5093474;28;20042;-73
2024/02/15 01:56:31;;;;;;;10.07;7.88;;;;;;;5.62;74.81;99772.56;5075048;28;20101;-74
2024/02/15 01:58:57;;;;;;;12.80;6.95;;;;;;;5.73;74.12;99775.19;5075092;28;20024;-73
2024/02/15 02:01:23;;;;;;;9.60;6.78;;;;;;;5.72;73.06;99773.53;5093248;28;20024;-74
2024/02/15 02:03:49;;;;;;;8.73;6.95;;;;;;;5.70;73.08;99773.03;5093302;28;20523;-73
2024/02/15 02:06:14;;;;;;;11.30;7.32;;;;;;;5.70;72.54;99784.13;5093038;28;20432;-73
2024/02/15 02:08:40;;;;;;;12.75;7.35;;;;;;;5.66;73.24;99780.28;5093167;28;20028;-73
2024/02/15 02:11:06;;;;;;;11.02;7.57;;;;;;;5.55;73.25;99783.19;5092957;28;20028;-74
2024/02/15 02:13:32;;;;;;;11.63;8.30;;;;;;;5.52;74.49;99781.00;5093299;28;20036;-73
2024/02/15 02:15:59;;;;;;;12.85;7.97;;;;;;;5.54;74.52;99783.47;5092947;28;20445;-73
2024/02/15 02:18:25;;;;;;;12.18;8.93;;;;;;;5.52;75.20;99783.78;5074610;28;20020;-73
2024/02/15 02:20:50;;;;;;;13.15;9.02;;;;;;;5.43;74.33;99780.81;5074738;28;20027;-73
2024/02/15 02:23:19;;;;;;;12.95;9.02;;;;;;;5.46;73.89;99785.78;5074364;28;20016;-73
2024/02/15 02:25:49;;;;;;;10.07;8.02;;;;;;;5.45;74.37;99789.66;5092791;28;20085;-73
2024/02/15 02:28:15;;;;;;;12.60;7.72;;;;;;;5.41;73.47;99788.56;5074505;28;20030;-73
2024/02/15 02:30:41;;;;;;;12.43;8.07;;;;;;;5.42;73.21;99781.09;5092661;28;20556;-74
2024/02/15 02:33:21;;;;;;;10.88;8.27;;;;;;;5.42;73.12;99784.69;5074324;28;20119;-74
2024/02/15 02:35:47;;;;;;;12.05;8.23;;;;;;;5.44;73.44;99798.28;5092515;28;20024;-73
2024/02/15 02:38:14;;;;;;;9.88;7.28;;;;;;;5.48;72.87;99799.31;5092460;28;20032;-74
2024/02/15 02:40:40;;;;;;;18.48;8.95;;;;;;;5.44;73.36;99796.34;5092481;28;20020;-73
2024/02/15 02:43:05;;;;;;;13.93;8.63;;;;;;;5.34;74.94;99793.66;5092529;28;20067;-72
2024/02/15 02:45:31;;;;;;;9.82;7.78;;;;;;;5.31;74.33;99788.69;5074103;28;20461;-72
2024/02/15 02:47:56;;;;;;;10.48;7.53;;;;;;;5.37;74.15;99795.00;5092093;28;20496;-72
2024/02/15 02:50:22;;;;;;;13.68;8.20;;;;;;;5.33;73.97;99783.69;5091263;28;20043;-72
2024/02/15 02:52:48;;;;;;;11.80;7.75;;;;;;;5.33;73.87;99795.59;5092136;28;20020;-72
2024/02/15 02:55:15;;;;;;;13.68;7.75;;;;;;;5.26;74.92;99791.50;5074375;28;20039;-72
2024/02/15 02:57:42;;;;;;;12.52;8.80;;;;;;;5.27;75.07;99791.22;5091909;28;20055;-72
2024/02/15 03:00:14;;;;;;;11.93;8.20;;;;;;;5.29;74.64;99794.53;5092035;28;20032;-72
2024/02/15 03:02:45;;;;;;;12.82;8.77;;;;;;;5.28;75.28;99795.66;5092137;28;20514;-72
2024/02/15 03:05:11;;;;;;;11.07;7.47;;;;;;;5.28;74.06;99790.09;5092002;28;20031;-72
2024/02/15 03:07:37;;;;;;;11.70;7.93;;;;;;;5.26;74.28;99794.28;5091778;28;20028;-72
2024/02/15 03:10:04;;;;;;;18.15;8.00;;;;;;;5.27;73.20;99787.63;5073785;28;20115;-72
2024/02/15 03:12:30;;;;;;;13.13;8.43;;;;;;;5.22;74.07;99784.91;5073746;28;20074;-72
2024/02/15 03:14:56;;;;;;;12.85;8.70;;;;;;;5.29;73.62;99800.06;5091798;28;20036;-72
2024/02/15 03:17:23;;;;;;;14.13;8.75;;;;;;;5.37;72.40;99808.88;5091773;28;20473;-72
2024/02/15 03:19:49;;;;;;;9.43;7.13;;;;;;;5.37;72.14;99806.09;5096476;28;20028;-72
2024/02/15 03:22:14;;;;;;;13.55;7.97;;;;;;;5.28;73.27;99805.91;5112272;28;20423;-72
2024/02/15 03:24:40;;;;;;;14.60;8.93;;;;;;;5.31;74.25;99810.91;5112173;28;20476;-72
2024/02/15 03:27:06;;;;;;;14.18;8.98;;;;;;;5.26;74.18;99810.91;5111978;28;20026;-72
2024/02/15 03:29:34;;;;;;;13.00;8.38;;;;;;;5.30;72.58;99810.06;5093452;28;20112;-72
2024/02/15 03:31:59;;;;;;;10.50;8.10;;;;;;;5.33;74.10;99808.66;5112137;28;20024;-72
2024/02/15 03:34:25;;;;;;;14.05;9.55;;;;;;;5.23;72.54;99800.41;5112000;28;20035;-72
2024/02/15 03:36:53;;;;;;;12.63;8.85;;;;;;;5.26;73.16;99788.72;5100081;28;20035;-72
2024/02/15 03:39:19;;;;;;;13.18;9.15;;;;;;;5.31;72.47;99802.56;5091222;28;20024;-72
2024/02/15 03:41:45;;;;;;;12.60;9.30;;;;;;;5.26;72.58;99795.13;5091274;28;20074;-72
2024/02/15 03:44:12;;;;;;;10.50;8.38;;;;;;;5.23;72.57;99800.41;5091272;28;20048;-72
2024/02/15 03:46:37;;;;;;;11.23;8.75;;;;;;;5.22;72.35;99805.13;5091144;28;20024;-72
2024/02/15 03:49:03;;;;;;;13.35;8.13;;;;;;;5.21;73.28;99806.25;5090955;28;20386;-72
2024/02/15 03:51:28;;;;;;;15.68;8.98;;;;;;;5.14;74.10;99803.81;5073067;28;20024;-72
2024/02/15 03:53:54;;;;;;;13.75;8.43;;;;;;;5.13;72.94;99802.16;5110258;28;20488;-72
2024/02/15 03:56:22;;;;;;;16.02;8.48;;;;;;;5.14;72.52;99812.13;5092891;28;20059;-72
2024/02/15 03:58:50;;;;;;;12.27;9.13;;;;;;;5.11;73.33;99815.50;5092871;28;20088;-72
2024/02/15 04:01:15;;;;;;;11.23;8.35;;;;;;;5.09;73.41;99814.97;5092907;28;20063;-72
2024/02/15 04:03:41;;;;;;;11.85;7.93;;;;;;;5.08;73.05;99813.31;5111113;28;20062;-72
2024/02/15 04:06:06;;;;;;;13.60;8.80;;;;;;;5.11;73.52;99807.16;5111216;28;20023;-72
2024/02/15 04:08:33;;;;;;;10.73;7.80;;;;;;;5.10;74.58;99816.59;5107196;28;20536;-72
2024/02/15 04:10:59;;;;;;;16.67;8.15;;;;;;;5.06;74.77;99804.41;5090715;28;20024;-72
2024/02/15 04:13:24;;;;;;;11.15;7.78;;;;;;;5.13;73.11;99815.19;5090663;28;20039;-72
2024/02/15 04:15:52;;;;;;;13.48;8.57;;;;;;;5.17;73.66;99822.63;5089308;28;20104;-72
2024/02/15 04:18:18;;;;;;;15.27;8.57;;;;;;;5.22;71.89;99812.63;5072422;28;20428;-72
2024/02/15 04:20:45;;;;;;;11.88;7.78;;;;;;;5.15;72.14;99808.22;5072387;28;20024;-72
2024/02/15 04:23:11;;;;;;;15.02;8.75;;;;;;;5.15;73.79;99818.50;5090538;28;20123;-72
2024/02/15 04:25:37;;;;;;;11.43;8.20;;;;;;;5.15;74.13;99824.88;5090002;28;20028;-72
2024/02/15 04:28:03;;;;;;;16.67;8.25;;;;;;;5.10;73.44;99813.00;5072275;28;20125;-72
2024/02/15 04:30:30;;;;;;;13.63;9.32;;;;;;;5.10;73.49;99811.06;5090283;28;20020;-72
2024/02/15 04:32:55;;;;;;;13.65;8.27;;;;;;;5.06;75.30;99821.06;5091969;28;20133;-72
2024/02/15 04:35:21;;;;;;;9.93;7.57;;;;;;;5.07;75.13;99817.19;5110356;28;20031;-72
2024/02/15 04:37:49;;;;;;;14.38;8.60;;;;;;;5.01;76.00;99812.78;5092374;28;20392;-72
2024/02/15 04:40:15;;;;;;;13.18;9.02;;;;;;;5.08;76.23;99818.84;5092195;28;20027;-72
2024/02/15 04:42:43;;;;;;;14.63;9.52;;;;;;;5.05;76.07;99823.03;5110584;28;20035;-72
2024/02/15 04:45:10;;;;;;;13.43;9.57;;;;;;;5.04;77.74;99820.53;5110386;28;20411;-72
2024/02/15 04:47:36;;;;;;;22.02;10.82;;;;;;;4.92;78.94;99810.63;5092003;28;20055;-72
2024/02/15 04:50:03;;;;;;;13.40;9.57;;;;;;;4.91;79.59;99817.28;5097269;28;20051;-72
2024/02/15 04:52:29;;;;;;;14.73;10.05;;;;;;;5.02;80.28;99822.75;5071828;28;20024;-72
2024/02/15 04:54:55;;;;;;;16.48;9.38;;;;;;;4.99;79.74;99820.56;5090009;28;20032;-72
2024/02/15 04:57:20;;;;;;;15.27;10.60;;;;;;;5.03;79.70;99829.97;5071759;28;20433;-72
2024/02/15 04:59:48;;;;;;;13.75;9.48;;;;;;;5.01;79.10;99823.88;5071729;28;20032;-72
2024/02/15 05:02:14;;;;;;;16.45;10.10;;;;;;;5.09;79.61;99827.97;5072078;28;20451;-72
2024/02/15 05:04:42;;;;;;;17.48;10.57;;;;;;;5.01;79.58;99829.44;5071499;28;20106;-72
2024/02/15 05:07:08;;;;;;;13.80;10.65;;;;;;;5.07;78.88;99833.84;5089934;28;20073;-72
2024/02/15 05:09:34;;;;;;;17.05;9.98;;;;;;;5.02;79.48;99829.16;5071616;28;20023;-72
2024/02/15 05:12:02;;;;;;;23.00;10.55;;;;;;;4.97;80.20;99842.22;5072127;28;20064;-72
2024/02/15 05:14:31;;;;;;;17.20;11.80;;;;;;;4.98;80.43;99841.91;5089222;28;20416;-72
2024/02/15 05:16:56;;;;;;;17.27;10.57;;;;;;;5.01;79.57;99848.84;5071750;28;20192;-72
2024/02/15 05:19:21;;;;;;;13.55;9.05;;;;;;;4.99;79.82;99851.06;5089675;28;20028;-72
2024/02/15 05:21:47;;;;;;;15.10;9.27;;;;;;;5.06;79.49;99838.53;5080023;28;20031;-72
2024/02/15 05:24:17;;;;;;;16.08;10.25;;;;;;;5.06;78.80;99843.25;5089734;28;20466;-72
2024/02/15 05:26:48;;;;;;;17.15;10.38;;;;;;;5.06;79.05;99846.00;5089702;28;20113;-72
2024/02/15 05:29:14;;;;;;;20.88;11.18;;;;;;;5.01;78.82;99846.91;5071488;28;20035;-72
2024/02/15 05:31:40;;;;;;;16.35;10.13;;;;;;;5.10;76.73;99851.81;5071382;28;20527;-72
2024/02/15 05:34:11;;;;;;;18.00;11.23;;;;;;;5.14;76.97;99856.50;5089678;28;20055;-72
2024/02/15 05:36:37;;;;;;;12.30;9.52;;;;;;;5.13;77.50;99856.78;5071756;28;20028;-72
2024/02/15 05:39:04;;;;;;;13.85;9.60;;;;;;;5.16;75.65;99859.00;5089499;28;20047;-72
2024/02/15 05:41:29;;;;;;;16.85;10.32;;;;;;;5.16;76.54;99848.72;5089566;28;20027;-72
2024/02/15 05:43:57;;;;;;;20.02;10.68;;;;;;;5.17;76.79;99855.09;5089643;28;20528;-72
2024/02/15 05:46:23;;;;;;;15.60;10.82;;;;;;;5.17;75.82;99869.78;5089500;28;20028;-72
2024/02/15 05:48:49;;;;;;;19.00;11.85;;;;;;;5.25;74.61;99864.75;5098492;28;20428;-72
2024/02/15 05:51:14;;;;;;;18.60;10.88;;;;;;;5.22;76.12;99871.69;5109761;28;20412;-71
2024/02/15 05:53:41;;;;;;;16.58;9.68;;;;;;;5.16;75.42;99865.34;5109870;28;20024;-72
2024/02/15 05:56:07;;;;;;;14.18;9.43;;;;;;;5.22;74.69;99873.66;5109578;28;20047;-72
2024/02/15 05:58:33;;;;;;;17.65;9.98;;;;;;;5.24;75.76;99866.66;5109860;28;20037;-72
2024/02/15 06:01:01;;;;;;;10.82;8.70;;;;;;;5.28;76.08;99883.56;5091323;28;20499;-72
2024/02/15 06:03:33;;;;;;;17.52;10.20;;;;;;;5.31;74.55;99883.81;5091697;28;20035;-72
2024/02/15 06:06:01;;;;;;;19.85;10.50;;;;;;;5.33;73.55;99880.78;5093329;28;20408;-72
2024/02/15 06:08:30;;;;;;;18.80;10.38;;;;;;;5.38;73.81;99888.22;5089307;28;20031;-72
2024/02/15 06:10:55;;;;;;;18.23;10.13;;;;;;;5.34;74.34;99887.97;5089264;28;20036;-72
2024/02/15 06:13:22;;;;;;;19.27;9.68;;;;;;;5.40;74.20;99892.34;5070411;28;20028;-72
2024/02/15 06:15:52;;;;;;;15.02;8.48;;;;;;;5.46;72.60;99890.38;5105881;28;20063;-72
2024/02/15 06:18:24;;;;;;;19.15;9.40;;;;;;;5.42;73.02;99892.88;5091255;28;20487;-73
2024/02/15 06:20:50;;;;;;;16.27;9.55;;;;;;;5.44;74.30;99895.38;5109628;28;20039;-72
2024/02/15 06:23:19;;;;;;;16.38;9.00;;;;;;;5.44;75.67;99903.69;5086317;28;20161;-69
2024/02/15 06:25:49;;;;;;;20.83;10.20;;;;;;;5.40;76.36;99903.44;5089953;28;20028;-73
2024/02/15 06:41:56;;;;;;;20.00;10.93;;;;;;;5.50;76.76;99907.25;5102897;28;20117;-73
2024/02/15 06:44:23;;;;;;;45.80;17.83;;;;;;;5.47;76.60;99909.50;5089989;28;20489;-76
2024/02/15 06:46:49;;;;;;;31.08;16.80;;;;;;;5.37;76.82;99900.41;5071556;28;20028;-73
2024/02/15 06:49:16;;;;;;;25.33;13.00;;;;;;;5.53;74.56;99915.84;5089710;28;20508;-72
2024/02/15 06:51:41;;;;;;;31.77;14.27;;;;;;;5.58;75.51;99920.53;5071571;28;20366;-70
2024/02/15 06:54:07;;;;;;;21.75;12.55;;;;;;;5.59;76.67;99920.22;5089276;28;20083;-72
2024/02/15 06:56:37;;;;;;;19.23;10.98;;;;;;;5.57;74.88;99916.09;5088325;28;20056;-72
2024/02/15 06:59:03;;;;;;;18.45;12.07;;;;;;;5.59;76.57;99913.84;5087850;28;20576;-70
2024/02/15 07:01:28;;;;;;;19.95;11.95;;;;;;;5.60;76.62;99921.06;5089666;28;20024;-72
2024/02/15 07:03:55;;;;;;;26.30;12.05;;;;;;;5.65;76.79;99923.78;5089729;28;20452;-76
2024/02/15 07:06:21;;;;;;;15.38;10.55;;;;;;;5.64;74.97;99924.91;5088462;28;20028;-71
2024/02/15 07:08:47;;;;;;;30.33;13.48;;;;;;;5.62;75.32;99918.81;5071023;28;20544;-72
2024/02/15 07:11:13;;;;;;;21.42;13.23;;;;;;;5.67;75.67;99932.66;5071345;28;20026;-73
2024/02/15 07:13:38;;;;;;;22.85;12.10;;;;;;;5.74;77.07;99932.31;5071149;28;20024;-73
2024/02/15 07:16:11;;;;;;;18.70;10.68;;;;;;;5.73;74.38;99928.72;5089022;28;20066;-71
2024/02/15 07:18:36;;;;;;;21.38;10.88;;;;;;;5.74;74.98;99924.81;5070382;28;20028;-70
2024/02/15 07:21:08;;;;;;;22.25;12.40;;;;;;;5.71;76.47;99936.50;5099036;28;20020;-71
2024/02/15 07:23:34;;;;;;;27.75;12.25;;;;;;;5.69;76.18;99924.88;5098103;28;20461;-71
2024/02/15 07:25:59;;;;;;;17.73;10.88;;;;;;;5.74;75.05;99932.31;5106346;28;20070;-68
2024/02/15 07:28:26;;;;;;;18.63;12.20;;;;;;;5.68;75.16;99926.00;5097328;28;20088;-70
2024/02/15 07:30:54;;;;;;;18.80;12.25;;;;;;;5.78;75.99;99935.31;5089025;28;20028;-71
2024/02/15 07:33:22;;;;;;;20.58;12.63;;;;;;;5.72;75.94;99926.22;5077651;28;20038;-72
2024/02/15 07:35:50;;;;;;;22.98;12.30;;;;;;;5.82;75.01;99936.41;5088825;28;20024;-72
2024/02/15 07:38:16;;;;;;;20.70;11.80;;;;;;;5.85;74.56;99938.59;5088705;28;20040;-73
2024/02/15 07:40:42;;;;;;;19.63;13.95;;;;;;;5.86;75.08;99927.22;5088376;28;20504;-73
2024/02/15 07:43:07;;;;;;;24.77;14.00;;;;;;;5.83;74.43;99938.88;5097641;28;20033;-73
2024/02/15 07:45:36;;;;;;;33.25;17.13;;;;;;;5.88;74.57;99946.34;5090746;28;20027;-71
2024/02/15 07:48:04;;;;;;;25.20;13.23;;;;;;;5.91;73.47;99948.53;5086009;28;20040;-73
2024/02/15 07:50:30;;;;;;;15.77;10.95;;;;;;;5.92;74.15;99957.69;5088717;28;20095;-72
2024/02/15 07:52:56;;;;;;;21.92;12.75;;;;;;;5.93;74.88;99948.25;5074155;28;20047;-72
2024/02/15 07:55:21;;;;;;;28.20;12.60;;;;;;;6.00;74.85;99945.97;5088465;28;20089;-71
2024/02/15 07:57:48;;;;;;;20.90;11.27;;;;;;;5.96;74.04;99948.50;5086265;28;20131;-74
2024/02/15 08:00:16;;;;;;;29.13;13.30;;;;;;;6.08;75.29;99958.41;5088442;28;20024;-71
2024/02/15 08:02:45;;;;;;;29.10;14.57;;;;;;;6.08;74.50;99941.75;5088316;28;20142;-71
2024/02/15 08:05:12;;;;;;;24.25;11.85;;;;;;;6.17;73.30;99943.59;5088293;28;20030;-68
2024/02/15 08:07:42;;;;;;;20.38;11.80;;;;;;;6.27;73.30;99945.41;5088195;28;20032;-70
2024/02/15 08:10:12;;;;;;;18.77;10.93;;;;;;;6.30;72.03;99942.06;5088415;28;20023;-69
2024/02/15 08:12:39;;;;;;;17.92;11.20;;;;;;;6.35;72.83;99943.13;5069638;28;20060;-70
2024/02/15 08:15:04;;;;;;;20.98;10.95;;;;;;;6.39;71.51;99944.19;5069994;28;20526;-70
2024/02/15 08:17:30;;;;;;;22.05;11.23;;;;;;;6.54;71.54;99927.34;5087935;28;20271;-70
2024/02/15 08:19:55;;;;;;;17.65;11.40;;;;;;;6.67;69.86;99944.44;5070087;28;20039;-70
2024/02/15 08:22:23;;;;;;;22.23;13.20;;;;;;;6.74;70.42;99950.44;5087868;28;20032;-70
2024/02/15 08:24:52;;;;;;;27.77;15.68;;;;;;;6.79;69.85;99947.59;5069910;28;20054;-70
2024/02/15 08:27:17;;;;;;;19.75;11.55;;;;;;;6.77;68.89;99944.31;5067874;28;20485;-70
2024/02/15 08:29:43;;;;;;;15.40;10.77;;;;;;;6.85;68.43;99940.03;5086402;28;20043;-69
2024/02/15 08:32:08;;;;;;;13.55;10.20;;;;;;;6.87;67.65;99946.94;5069572;28;20038;-71
2024/02/15 08:34:33;;;;;;;19.95;11.82;;;;;;;7.02;68.27;99939.53;5087890;28;20035;-69
2024/02/15 08:36:59;;;;;;;18.75;10.90;;;;;;;7.19;67.40;99949.28;5069248;28;20027;-71
2024/02/15 08:39:24;;;;;;;27.95;14.15;;;;;;;7.48;66.09;99956.63;5087906;28;20028;-71
2024/02/15 08:41:53;;;;;;;31.98;12.93;;;;;;;7.59;65.32;99942.28;5086151;28;20030;-72
2024/02/15 08:44:19;;;;;;;25.85;11.25;;;;;;;7.83;64.92;99951.63;5085542;28;20055;-71
2024/02/15 08:46:44;;;;;;;21.23;12.00;;;;;;;7.90;64.72;99945.66;5087893;28;20089;-71
2024/02/15 08:49:13;;;;;;;20.52;11.20;;;;;;;7.90;64.87;99949.28;5086676;28;20428;-71
2024/02/15 08:51:39;;;;;;;15.63;9.75;;;;;;;7.87;63.24;99942.34;5087517;28;20062;-73
2024/02/15 08:54:04;;;;;;;28.00;11.35;;;;;;;7.83;64.33;99946.06;5068999;28;20024;-73
2024/02/15 08:56:30;;;;;;;18.48;10.35;;;;;;;7.98;62.86;99948.59;5069260;28;20044;-72
2024/02/15 08:58:57;;;;;;;15.32;10.75;;;;;;;8.11;61.98;99940.56;5085347;28;20512;-71
2024/02/15 09:01:23;;;;;;;14.27;10.05;;;;;;;8.17;62.64;99939.31;5087511;28;20716;-73
2024/02/15 09:03:49;;;;;;;18.35;10.63;;;;;;;8.34;63.44;99937.91;5087349;28;20488;-72
2024/02/15 09:06:15;;;;;;;15.55;9.77;;;;;;;8.44;61.29;99943.25;5087356;28;20020;-69
2024/02/15 09:08:40;;;;;;;22.02;9.20;;;;;;;8.55;61.41;99941.16;5069109;28;20504;-72
2024/02/15 09:11:05;;;;;;;17.13;9.35;;;;;;;8.45;61.08;99933.78;5087435;28;20034;-70
2024/02/15 09:13:33;;;;;;;15.52;8.93;;;;;;;8.69;61.41;99938.34;5087291;28;20056;-71
2024/02/15 09:15:59;;;;;;;13.80;9.35;;;;;;;8.93;60.65;99940.06;5087236;28;20020;-72
2024/02/15 09:18:24;;;;;;;18.83;10.23;;;;;;;8.78;58.58;99919.72;5087240;28;20389;-71
2024/02/15 09:20:55;;;;;;;12.80;8.77;;;;;;;8.81;58.89;99929.44;5087210;28;20039;-72
2024/02/15 09:23:23;;;;;;;18.55;10.30;;;;;;;9.12;58.78;99931.56;5087398;28;20557;-71
2024/02/15 09:25:51;;;;;;;14.90;8.52;;;;;;;9.27;58.80;99933.16;5087663;28;20480;-71
2024/02/15 09:28:21;;;;;;;16.20;10.15;;;;;;;9.18;58.42;99935.88;5087173;28;20032;-72
2024/02/15 09:30:48;;;;;;;11.90;8.07;;;;;;;9.21;58.24;99923.28;5087578;28;20088;-72
2024/02/15 09:33:13;;;;;;;15.82;10.15;;;;;;;9.18;57.70;99921.13;5093446;28;20035;-70
2024/02/15 09:35:39;;;;;;;23.77;11.90;;;;;;;9.25;56.60;99924.28;5087277;28;20373;-70
2024/02/15 09:38:06;;;;;;;19.02;10.57;;;;;;;9.26;57.95;99923.13;5086730;28;20032;-71
2024/02/15 09:40:31;;;;;;;14.77;8.77;;;;;;;9.57;56.52;99921.56;5108250;28;20059;-71
2024/02/15 09:42:57;;;;;;;18.65;10.20;;;;;;;9.61;57.22;99919.81;5111042;28;20074;-75
2024/02/15 09:45:24;;;;;;;23.13;10.98;;;;;;;9.50;57.42;99920.06;5092472;28;20051;-74
2024/02/15 09:47:50;;;;;;;17.38;9.43;;;;;;;9.81;57.36;99901.72;5110264;28;20469;-75
2024/02/15 09:50:17;;;;;;;14.27;8.48;;;;;;;9.66;56.08;99903.75;5110183;28;20051;-75
2024/02/15 09:52:56;;;;;;;18.77;9.38;;;;;;;9.74;54.94;99904.97;5110773;28;20024;-74
2024/02/15 09:55:22;;;;;;;19.13;10.80;;;;;;;9.91;55.90;99901.44;5095670;28;20028;-71
2024/02/15 09:57:49;;;;;;;22.27;9.95;;;;;;;9.78;56.46;99888.38;5090973;28;20407;-75
2024/02/15 10:00:16;;;;;;;19.85;9.75;;;;;;;9.93;55.41;99890.75;5091631;28;20020;-78
2024/02/15 10:02:46;;;;;;;14.68;9.32;;;;;;;9.75;54.36;99884.25;5094230;28;20028;-77
2024/02/15 10:05:12;;;;;;;19.42;11.80;;;;;;;9.94;55.07;99885.97;5093650;28;20598;-77
2024/02/15 10:07:44;;;;;;;23.33;11.05;;;;;;;10.03;55.92;99872.06;5074742;28;20036;-77
2024/02/15 10:10:23;;;;;;;16.33;9.00;;;;;;;10.10;53.37;99878.84;5075325;28;20472;-74
2024/02/15 10:12:56;;;;;;;14.75;8.82;;;;;;;10.07;54.41;99876.69;5092957;28;20580;-74
2024/02/15 10:15:31;;;;;;;16.13;9.07;;;;;;;10.03;54.65;99866.50;5093746;28;20024;-75
2024/02/15 10:17:58;;;;;;;18.85;11.43;;;;;;;10.19;53.10;99852.88;5074395;28;20488;-71
2024/02/15 10:20:27;;;;;;;12.82;8.23;;;;;;;10.42;52.53;99859.25;5093196;28;20028;-71
2024/02/15 10:23:17;;;;;;;12.95;8.30;;;;;;;10.58;53.83;99850.41;5074146;28;20081;-72
2024/02/15 10:25:43;;;;;;;12.57;7.97;;;;;;;10.46;53.83;99831.47;5100179;28;20027;-71
2024/02/15 10:28:10;;;;;;;14.48;9.07;;;;;;;10.63;52.52;99834.28;5090345;28;20825;-71
2024/02/15 10:30:39;;;;;;;12.23;7.32;;;;;;;10.66;51.93;99838.41;5108926;28;20559;-74
2024/02/15 10:33:07;;;;;;;10.88;7.53;;;;;;;10.65;51.84;99829.19;5089176;28;20032;-72
2024/02/15 10:35:36;;;;;;;10.60;7.15;;;;;;;10.63;51.72;99823.09;5090265;28;20024;-71
2024/02/15 10:38:13;;;;;;;13.27;8.60;;;;;;;10.85;51.58;99823.28;5071846;28;20051;-72
2024/02/15 10:40:42;;;;;;;14.45;8.60;;;;;;;11.03;50.93;99821.31;5090000;28;20028;-74
2024/02/15 10:43:12;;;;;;;11.60;8.00;;;;;;;10.77;51.07;99813.72;5088576;28;20028;-71
2024/02/15 10:45:42;;;;;;;12.07;7.80;;;;;;;11.06;50.38;99829.88;5086872;28;20100;-73
2024/02/15 10:48:09;;;;;;;14.80;7.53;;;;;;;11.15;50.61;99815.88;5094387;28;20028;-73
2024/02/15 10:50:35;;;;;;;23.02;14.73;;;;;;;11.39;50.89;99820.13;5101886;28;20480;-73
2024/02/15 10:53:10;;;;;;;37.15;17.15;;;;;;;11.38;49.96;99796.06;5092512;28;20020;-73
2024/02/15 10:55:43;;;;;;;15.45;10.02;;;;;;;11.33;49.50;99810.25;5091029;28;20107;-73
2024/02/15 10:58:13;;;;;;;11.88;7.63;;;;;;;11.51;49.68;99802.66;5074052;28;20028;-73
2024/02/15 11:00:41;;;;;;;9.77;6.88;;;;;;;11.79;48.74;99791.84;5073971;28;20084;-73
2024/02/15 11:03:08;;;;;;;12.63;7.40;;;;;;;11.99;48.47;99791.44;5092102;28;20043;-73
2024/02/15 11:05:38;;;;;;;14.13;8.60;;;;;;;12.09;49.27;99785.50;5091993;28;20031;-73
2024/02/15 11:08:08;;;;;;;;;;;;;;;12.05;47.71;99796.56;5092096;28;20107;-73
2024/02/15 11:10:35;;;;;;;11.93;6.82;;;;;;;12.06;48.61;99783.34;5091998;28;19950;-73
2024/02/15 11:13:03;;;;;;;10.63;6.63;;;;;;;11.94;46.90;99784.88;5091117;28;20485;-73
2024/02/15 11:15:51;;;;;;;27.42;12.13;;;;;;;11.92;47.01;99770.34;5090562;28;20501;-73
2024/02/15 11:18:45;;;;;;;12.27;6.78;;;;;;;11.88;47.27;99775.00;5073605;28;20096;-73
2024/02/15 11:21:12;;;;;;;26.17;9.98;;;;;;;12.34;47.70;99780.06;5091724;28;20111;-73
2024/02/15 11:23:38;;;;;;;81.80;38.28;;;;;;;12.43;46.72;99758.41;5091773;28;20032;-73
2024/02/15 11:26:04;;;;;;;103.40;47.10;;;;;;;12.64;46.24;99782.81;5091579;28;20035;-73
2024/02/15 11:28:30;;;;;;;32.53;18.40;;;;;;;12.44;45.73;99773.25;5091640;28;20417;-73
2024/02/15 11:30:59;;;;;;;45.00;25.27;;;;;;;12.04;46.95;99760.44;5091520;28;20031;-73
2024/02/15 11:33:32;;;;;;;56.83;31.98;;;;;;;11.74;47.42;99757.59;5091531;28;20504;-73
2024/02/15 11:36:08;;;;;;;40.60;21.13;;;;;;;11.99;47.79;99766.22;5091365;28;20028;-73
2024/02/15 11:38:37;;;;;;;17.30;8.40;;;;;;;12.23;46.30;99748.78;5073217;28;20060;-73
2024/02/15 11:41:06;;;;;;;8.83;6.40;;;;;;;12.58;45.90;99758.97;5091304;28;20036;-73
2024/02/15 11:43:49;;;;;;;8.70;5.77;;;;;;;12.71;45.02;99755.06;5091310;28;20433;-73